Time;durP1;ratioP1;P1;durP2;ratioP2;P2;SDS_P1;SDS_P2;PMS_P1;PMS_P2;Temp;Humidity;BMP_temperature;BMP_pressure;BME280_temperature;BME280_humidity;BME280_pressure;Samples;Min_cycle;Max_cycle;Signal;HPM_P1;HPM_P2
2022/07/21 00:01:05;;;;;;;2.13;1.42;;;;;;;;;;5061703;28;20131;-89
2022/07/21 00:03:31;;;;;;;3.28;1.80;;;;;;;;;;5065135;28;20082;-88
2022/07/21 00:05:56;;;;;;;2.17;1.80;;;;;;;;;;5079964;28;20032;-87
2022/07/21 00:08:22;;;;;;;3.17;1.88;;;;;;;;;;5083180;28;20029;-90
2022/07/21 00:10:47;;;;;;;2.75;1.77;;;;;;;;;;5063872;28;20020;-89
2022/07/21 00:13:13;;;;;;;3.08;2.00;;;;;;;;;;5084791;28;20024;-88
2022/07/21 00:15:39;;;;;;;1.95;1.52;;;;;;;;;;5084565;28;20050;-89
2022/07/21 00:18:04;;;;;;;2.10;1.77;;;;;;;;;;5068268;28;20849;-87
2022/07/21 00:20:30;;;;;;;2.58;1.90;;;;;;;;;;5065857;28;20407;-87
2022/07/21 00:22:57;;;;;;;3.10;1.70;;;;;;;;;;5068494;28;20475;-88
2022/07/21 00:25:23;;;;;;;3.72;1.88;;;;;;;;;;5066286;28;20056;-88
2022/07/21 00:27:48;;;;;;;2.08;1.75;;;;;;;;;;5063928;28;20059;-87
2022/07/21 00:30:14;;;;;;;3.20;1.90;;;;;;;;;;5082981;28;20036;-87
2022/07/21 00:32:41;;;;;;;3.97;2.03;;;;;;;;;;5100284;28;20078;-87
2022/07/21 00:35:08;;;;;;;3.40;1.80;;;;;;;;;;5088027;28;20024;-88
2022/07/21 00:37:33;;;;;;;3.72;1.80;;;;;;;;;;5065249;28;20036;-87
2022/07/21 00:39:59;;;;;;;2.90;2.13;;;;;;;;;;5067286;28;20020;-88
2022/07/21 00:42:27;;;;;;;3.15;1.95;;;;;;;;;;5085516;28;20023;-87
2022/07/21 00:44:53;;;;;;;2.50;2.00;;;;;;;;;;5084027;28;20020;-87
2022/07/21 00:47:20;;;;;;;2.78;2.20;;;;;;;;;;5078275;28;20031;-87
2022/07/21 00:49:46;;;;;;;3.22;1.95;;;;;;;;;;5097481;28;20034;-87
2022/07/21 00:52:11;;;;;;;2.22;1.90;;;;;;;;;;5082940;28;20756;-88
2022/07/21 00:54:37;;;;;;;3.83;2.20;;;;;;;;;;5066226;28;20027;-88
2022/07/21 00:57:02;;;;;;;2.30;1.70;;;;;;;;;;5080104;28;20059;-87
2022/07/21 00:59:30;;;;;;;2.10;1.80;;;;;;;;;;5086643;28;20490;-85
2022/07/21 01:01:55;;;;;;;2.45;2.00;;;;;;;;;;5088111;28;20491;-88
2022/07/21 01:04:20;;;;;;;2.80;1.98;;;;;;;;;;5063396;28;20107;-88
2022/07/21 01:06:47;;;;;;;2.60;1.73;;;;;;;;;;5086910;28;20427;-88
2022/07/21 01:09:12;;;;;;;2.40;1.98;;;;;;;;;;5087143;28;20035;-85
2022/07/21 01:11:39;;;;;;;3.05;2.25;;;;;;;;;;5096085;28;20017;-87
2022/07/21 01:14:07;;;;;;;2.95;2.00;;;;;;;;;;5065806;28;20032;-87
2022/07/21 01:16:33;;;;;;;2.80;2.15;;;;;;;;;;5067798;28;20023;-88
2022/07/21 01:18:58;;;;;;;2.97;2.17;;;;;;;;;;5067311;28;20024;-89
2022/07/21 01:21:33;;;;;;;14.15;4.05;;;;;;;;;;5067884;28;20108;-88
2022/07/21 01:24:00;;;;;;;3.97;2.65;;;;;;;;;;5065104;28;20031;-87
2022/07/21 01:26:26;;;;;;;2.22;2.03;;;;;;;;;;5077946;28;20085;-87
2022/07/21 01:28:52;;;;;;;3.33;2.20;;;;;;;;;;5067626;28;20399;-89
2022/07/21 01:31:18;;;;;;;3.17;2.20;;;;;;;;;;5078606;28;20532;-89
2022/07/21 01:33:44;;;;;;;2.38;2.08;;;;;;;;;;5082549;28;20060;-88
2022/07/21 01:36:09;;;;;;;3.53;2.30;;;;;;;;;;5087199;28;20055;-89
2022/07/21 01:41:32;;;;;;;2.63;2.30;;;;;;;;;;5083425;28;20074;-88
2022/07/21 01:44:06;;;;;;;3.28;1.98;;;;;;;;;;5060789;28;20028;-88
2022/07/21 01:46:36;;;;;;;3.05;2.10;;;;;;;;;;5060641;28;20035;-87
2022/07/21 01:49:02;;;;;;;2.10;1.90;;;;;;;;;;5083024;28;20073;-86
2022/07/21 01:51:28;;;;;;;3.03;2.03;;;;;;;;;;5080791;28;20028;-87
2022/07/21 01:53:54;;;;;;;2.00;1.80;;;;;;;;;;5064755;28;20530;-90
2022/07/21 01:56:21;;;;;;;2.38;2.10;;;;;;;;;;5078607;28;20024;-88
2022/07/21 01:58:48;;;;;;;3.75;2.20;;;;;;;;;;5070487;28;21248;-88
2022/07/21 02:01:18;;;;;;;2.15;1.95;;;;;;;;;;5082271;28;20031;-89
2022/07/21 02:03:44;;;;;;;;;;;;;;;;;;5065477;28;20027;-87
2022/07/21 02:06:10;;;;;;;1.95;1.70;;;;;;;;;;5063102;28;19934;-87
2022/07/21 02:08:36;;;;;;;2.30;2.10;;;;;;;;;;5063206;28;20039;-89
2022/07/21 02:11:02;;;;;;;2.80;2.05;;;;;;;;;;5055287;28;20028;-87
2022/07/21 02:13:27;;;;;;;3.30;2.10;;;;;;;;;;5068949;28;20043;-87
2022/07/21 02:15:53;;;;;;;6.00;2.58;;;;;;;;;;5084955;28;20028;-88
2022/07/21 02:18:19;;;;;;;3.08;2.00;;;;;;;;;;5065976;28;20491;-90
2022/07/21 02:20:47;;;;;;;5.45;1.60;;;;;;;;;;5082265;28;20040;-87
2022/07/21 02:23:18;;;;;;;2.50;1.98;;;;;;;;;;5078288;28;20376;-89
2022/07/21 02:25:44;;;;;;;2.47;1.88;;;;;;;;;;5089301;28;20035;-89
2022/07/21 02:28:10;;;;;;;2.20;1.70;;;;;;;;;;5062419;28;20032;-88
2022/07/21 02:30:37;;;;;;;2.50;1.80;;;;;;;;;;5062880;28;20031;-88
2022/07/21 02:33:02;;;;;;;2.90;2.20;;;;;;;;;;5080083;28;20479;-89
2022/07/21 02:35:28;;;;;;;2.65;2.00;;;;;;;;;;5086256;28;20038;-89
2022/07/21 02:37:53;;;;;;;2.50;1.90;;;;;;;;;;5079604;28;20024;-87
2022/07/21 02:40:19;;;;;;;3.33;1.90;;;;;;;;;;5081282;28;20024;-89
2022/07/21 02:42:44;;;;;;;4.13;2.22;;;;;;;;;;5082628;28;20027;-87
2022/07/21 02:45:10;;;;;;;2.17;1.90;;;;;;;;;;5067695;28;20472;-87
2022/07/21 02:48:00;;;;;;;2.28;1.70;;;;;;;;;;5062172;28;20040;-87
2022/07/21 02:50:31;;;;;;;2.83;2.05;;;;;;;;;;5095652;28;20078;-88
2022/07/21 02:53:00;;;;;;;2.58;2.20;;;;;;;;;;5062008;28;20532;-88
2022/07/21 02:55:26;;;;;;;2.85;2.20;;;;;;;;;;5056642;28;20029;-87
2022/07/21 02:58:11;;;;;;;2.95;2.08;;;;;;;;;;5077446;28;20050;-86
2022/07/21 03:00:39;;;;;;;2.92;2.15;;;;;;;;;;5083137;28;20066;-88
2022/07/21 03:03:05;;;;;;;3.47;2.17;;;;;;;;;;5058937;28;20032;-86
2022/07/21 03:05:32;;;;;;;2.67;2.10;;;;;;;;;;5062547;28;20078;-87
2022/07/21 03:07:57;;;;;;;2.97;2.38;;;;;;;;;;5062175;28;20028;-88
2022/07/21 03:10:22;;;;;;;2.85;2.53;;;;;;;;;;5079337;28;20032;-87
2022/07/21 03:12:48;;;;;;;3.63;2.60;;;;;;;;;;5077341;28;20414;-87
2022/07/21 03:15:13;;;;;;;2.17;1.98;;;;;;;;;;5062731;28;20031;-88
2022/07/21 03:17:39;;;;;;;2.38;2.10;;;;;;;;;;5080000;28;20399;-88
2022/07/21 03:20:05;;;;;;;3.15;2.35;;;;;;;;;;5060750;28;20071;-85
2022/07/21 03:22:33;;;;;;;2.67;2.13;;;;;;;;;;5082437;28;20475;-86
2022/07/21 03:24:59;;;;;;;2.08;1.80;;;;;;;;;;5065113;28;20031;-88
2022/07/21 03:27:25;;;;;;;3.20;2.20;;;;;;;;;;5065806;28;20028;-86
2022/07/21 03:29:50;;;;;;;4.70;2.30;;;;;;;;;;5080256;28;20016;-87
2022/07/21 03:32:16;;;;;;;3.10;2.45;;;;;;;;;;5063428;28;20116;-86
2022/07/21 03:34:41;;;;;;;4.95;2.67;;;;;;;;;;5064241;28;20024;-87
2022/07/21 03:37:07;;;;;;;5.35;2.10;;;;;;;;;;5067831;28;20395;-88
2022/07/21 03:39:32;;;;;;;2.90;2.28;;;;;;;;;;5088429;28;20052;-88
2022/07/21 03:41:58;;;;;;;2.28;1.85;;;;;;;;;;5067244;28;20028;-88
2022/07/21 03:44:23;;;;;;;3.58;2.20;;;;;;;;;;5066254;28;20115;-87
2022/07/21 03:46:49;;;;;;;2.97;2.38;;;;;;;;;;5088525;28;20157;-88
2022/07/21 03:49:14;;;;;;;2.50;2.20;;;;;;;;;;5070613;28;20036;-87
2022/07/21 03:51:40;;;;;;;4.57;2.30;;;;;;;;;;5065669;28;20130;-86
2022/07/21 03:54:05;;;;;;;3.63;2.22;;;;;;;;;;5066343;28;20021;-87
2022/07/21 03:56:31;;;;;;;2.97;2.20;;;;;;;;;;5065831;28;20063;-86
2022/07/21 03:58:56;;;;;;;2.45;2.05;;;;;;;;;;5082454;28;20024;-87
2022/07/21 04:01:22;;;;;;;3.53;2.30;;;;;;;;;;5082932;28;20271;-87
2022/07/21 04:03:47;;;;;;;3.58;2.42;;;;;;;;;;5068515;28;20029;-87
2022/07/21 04:06:12;;;;;;;7.18;2.20;;;;;;;;;;5063983;28;20435;-87
2022/07/21 04:08:38;;;;;;;3.15;2.47;;;;;;;;;;5068784;28;20384;-86
2022/07/21 04:11:04;;;;;;;6.63;2.50;;;;;;;;;;5066511;28;20024;-86
2022/07/21 04:13:29;;;;;;;3.50;2.25;;;;;;;;;;5085654;28;20364;-87
2022/07/21 04:15:54;;;;;;;2.85;2.45;;;;;;;;;;5084730;28;20056;-86
2022/07/21 04:18:20;;;;;;;9.90;4.85;;;;;;;;;;5088415;28;20507;-86
2022/07/21 04:20:46;;;;;;;20.08;15.00;;;;;;;;;;5083571;28;20048;-87
2022/07/21 04:23:11;;;;;;;6.60;5.38;;;;;;;;;;5082671;28;20020;-88
2022/07/21 04:25:38;;;;;;;4.20;3.20;;;;;;;;;;5083146;28;20533;-88
2022/07/21 04:28:04;;;;;;;4.15;3.25;;;;;;;;;;5063058;28;20445;-88
2022/07/21 04:30:29;;;;;;;8.27;2.40;;;;;;;;;;5062276;28;20116;-87
2022/07/21 04:32:54;;;;;;;3.50;2.40;;;;;;;;;;5103247;28;20090;-87
2022/07/21 04:35:20;;;;;;;4.32;2.30;;;;;;;;;;5087881;28;20028;-88
2022/07/21 04:37:45;;;;;;;5.30;2.40;;;;;;;;;;5084032;28;20036;-89
2022/07/21 04:40:13;;;;;;;3.30;2.38;;;;;;;;;;5082186;28;20103;-90
2022/07/21 04:42:39;;;;;;;4.68;2.85;;;;;;;;;;5085759;28;20062;-86
2022/07/21 04:45:06;;;;;;;6.07;3.50;;;;;;;;;;5076325;28;20510;-89
2022/07/21 04:47:32;;;;;;;3.55;2.90;;;;;;;;;;5080770;28;20119;-88
2022/07/21 04:49:57;;;;;;;3.05;2.50;;;;;;;;;;5086464;28;20150;-87
2022/07/21 04:52:23;;;;;;;4.85;3.00;;;;;;;;;;5084008;28;20103;-87
2022/07/21 04:54:48;;;;;;;4.93;3.33;;;;;;;;;;5090649;28;20830;-86
2022/07/21 04:57:14;;;;;;;5.80;3.30;;;;;;;;;;5082833;28;20365;-87
2022/07/21 04:59:39;;;;;;;7.28;3.67;;;;;;;;;;5081137;28;20024;-85
2022/07/21 05:02:05;;;;;;;6.32;3.25;;;;;;;;;;5087184;28;20024;-85
2022/07/21 05:04:30;;;;;;;9.00;4.20;;;;;;;;;;5080940;28;20032;-86
2022/07/21 05:06:56;;;;;;;5.20;3.40;;;;;;;;;;5081480;28;20024;-87
2022/07/21 05:09:21;;;;;;;5.15;2.83;;;;;;;;;;5059984;28;20157;-87
2022/07/21 05:11:47;;;;;;;6.55;3.30;;;;;;;;;;5080995;28;20036;-89
2022/07/21 05:14:12;;;;;;;3.83;2.95;;;;;;;;;;5060706;28;20110;-85
2022/07/21 05:16:38;;;;;;;6.45;3.17;;;;;;;;;;5080368;28;20032;-84
2022/07/21 05:19:03;;;;;;;7.32;3.70;;;;;;;;;;5084125;28;20013;-85
2022/07/21 05:21:29;;;;;;;6.03;4.28;;;;;;;;;;5082415;28;20049;-84
2022/07/21 05:23:54;;;;;;;5.15;3.40;;;;;;;;;;5080843;28;20381;-85
2022/07/21 05:26:20;;;;;;;5.38;3.47;;;;;;;;;;5083111;28;20460;-85
2022/07/21 05:28:45;;;;;;;6.63;3.53;;;;;;;;;;5064271;28;20035;-86
2022/07/21 05:31:11;;;;;;;7.60;3.65;;;;;;;;;;5065014;28;20047;-86
2022/07/21 05:33:36;;;;;;;4.32;3.63;;;;;;;;;;5062817;28;20024;-86
2022/07/21 05:36:03;;;;;;;10.35;3.85;;;;;;;;;;5082019;28;20069;-86
2022/07/21 05:38:29;;;;;;;7.50;4.18;;;;;;;;;;5080586;28;20040;-84
2022/07/21 05:40:54;;;;;;;10.38;4.32;;;;;;;;;;5073690;28;20047;-85
2022/07/21 05:43:19;;;;;;;8.07;4.28;;;;;;;;;;5054389;28;20028;-84
2022/07/21 05:45:45;;;;;;;5.68;3.75;;;;;;;;;;5058213;28;20056;-86
2022/07/21 05:48:10;;;;;;;7.28;4.40;;;;;;;;;;5076931;28;20048;-84
2022/07/21 05:50:36;;;;;;;9.80;5.10;;;;;;;;;;5081233;28;20099;-85
2022/07/21 05:53:01;;;;;;;6.75;4.38;;;;;;;;;;5081796;28;20074;-84
2022/07/21 05:55:26;;;;;;;10.07;4.43;;;;;;;;;;5063218;28;20020;-87
2022/07/21 05:57:52;;;;;;;4.93;3.92;;;;;;;;;;5066032;28;20427;-85
2022/07/21 06:00:17;;;;;;;4.63;3.92;;;;;;;;;;5080605;28;20132;-85
2022/07/21 06:02:44;;;;;;;8.13;3.92;;;;;;;;;;5077554;28;20032;-87
2022/07/21 06:05:10;;;;;;;6.32;3.60;;;;;;;;;;5058176;28;20032;-82
2022/07/21 06:07:36;;;;;;;6.93;3.70;;;;;;;;;;5077370;28;20032;-85
2022/07/21 06:10:03;;;;;;;9.85;4.13;;;;;;;;;;5080031;28;20032;-83
2022/07/21 06:12:28;;;;;;;6.28;4.13;;;;;;;;;;5061039;28;20028;-82
2022/07/21 06:14:55;;;;;;;6.90;3.90;;;;;;;;;;5081112;28;20084;-83
2022/07/21 06:17:21;;;;;;;7.95;4.20;;;;;;;;;;5077914;28;20473;-84
2022/07/21 06:19:46;;;;;;;9.25;4.93;;;;;;;;;;5056408;28;20492;-86
2022/07/21 06:22:12;;;;;;;14.77;10.73;;;;;;;;;;5083915;28;20111;-85
2022/07/21 06:24:37;;;;;;;17.95;11.82;;;;;;;;;;5073707;28;20033;-86
2022/07/21 06:27:03;;;;;;;7.43;4.53;;;;;;;;;;5068581;28;20357;-86
2022/07/21 06:29:29;;;;;;;7.43;4.32;;;;;;;;;;5079186;28;20036;-84
2022/07/21 06:31:54;;;;;;;8.23;3.92;;;;;;;;;;5078557;28;20030;-87
2022/07/21 06:34:19;;;;;;;12.38;4.47;;;;;;;;;;5085364;28;20023;-87
2022/07/21 06:36:45;;;;;;;7.63;4.22;;;;;;;;;;5078041;28;20026;-83
2022/07/21 06:39:13;;;;;;;7.70;4.20;;;;;;;;;;5082484;28;20028;-86
2022/07/21 06:41:39;;;;;;;7.13;4.03;;;;;;;;;;5083673;28;20153;-85
2022/07/21 06:44:05;;;;;;;7.80;4.15;;;;;;;;;;5061051;28;20472;-83
2022/07/21 06:46:34;;;;;;;5.28;3.63;;;;;;;;;;5080428;28;20020;-82
2022/07/21 06:49:00;;;;;;;8.23;4.38;;;;;;;;;;5058916;28;20035;-85
2022/07/21 06:51:26;;;;;;;10.13;4.03;;;;;;;;;;5078531;28;20036;-85
2022/07/21 06:53:51;;;;;;;9.57;4.03;;;;;;;;;;5079384;28;20042;-82
2022/07/21 06:56:18;;;;;;;6.82;4.38;;;;;;;;;;5078728;28;20021;-83
2022/07/21 06:58:43;;;;;;;6.72;3.78;;;;;;;;;;5068409;28;20028;-84
2022/07/21 07:01:09;;;;;;;16.20;4.22;;;;;;;;;;5081786;28;20361;-84
2022/07/21 07:03:35;;;;;;;7.93;3.90;;;;;;;;;;5079520;28;20107;-85
2022/07/21 07:06:00;;;;;;;6.90;3.55;;;;;;;;;;5081538;28;20052;-83
2022/07/21 07:08:26;;;;;;;11.50;3.60;;;;;;;;;;5082687;28;20067;-83
2022/07/21 07:10:51;;;;;;;6.22;3.30;;;;;;;;;;5083798;28;20024;-84
2022/07/21 07:13:17;;;;;;;8.52;3.15;;;;;;;;;;5084168;28;20041;-84
2022/07/21 07:15:43;;;;;;;5.82;3.30;;;;;;;;;;5100302;28;20189;-83
2022/07/21 07:18:09;;;;;;;7.22;3.50;;;;;;;;;;5076669;28;20118;-84
2022/07/21 07:20:34;;;;;;;9.05;3.30;;;;;;;;;;5080913;28;20091;-82
2022/07/21 07:23:00;;;;;;;9.35;3.38;;;;;;;;;;5083103;28;20043;-85
2022/07/21 07:25:25;;;;;;;6.68;3.78;;;;;;;;;;5078494;28;20032;-84
2022/07/21 07:27:51;;;;;;;8.32;3.83;;;;;;;;;;5081011;28;20036;-86
2022/07/21 07:30:18;;;;;;;6.95;3.30;;;;;;;;;;5083038;28;20016;-84
2022/07/21 07:32:44;;;;;;;6.28;3.60;;;;;;;;;;5058695;28;20123;-82
2022/07/21 07:35:11;;;;;;;6.45;3.15;;;;;;;;;;5088124;28;20575;-83
2022/07/21 07:37:39;;;;;;;7.53;3.30;;;;;;;;;;5069378;28;20792;-84
2022/07/21 07:40:07;;;;;;;8.90;3.15;;;;;;;;;;5083581;28;20651;-83
2022/07/21 07:42:34;;;;;;;5.75;2.97;;;;;;;;;;5082892;28;20031;-84
2022/07/21 07:44:59;;;;;;;5.13;2.95;;;;;;;;;;5078617;28;20055;-82
2022/07/21 07:47:25;;;;;;;8.50;2.72;;;;;;;;;;5095948;28;20055;-83
2022/07/21 07:49:52;;;;;;;7.07;2.53;;;;;;;;;;5088023;28;20031;-83
2022/07/21 07:52:18;;;;;;;5.57;2.70;;;;;;;;;;5080859;28;20376;-83
2022/07/21 07:54:44;;;;;;;3.00;2.20;;;;;;;;;;5080945;28;20514;-84
2022/07/21 07:57:09;;;;;;;5.03;2.10;;;;;;;;;;5080261;28;20108;-84
2022/07/21 07:59:35;;;;;;;2.80;2.25;;;;;;;;;;5079317;28;20052;-86
2022/07/21 08:02:00;;;;;;;4.90;2.17;;;;;;;;;;5079178;28;20016;-85
2022/07/21 08:04:26;;;;;;;5.57;2.70;;;;;;;;;;5087573;28;20040;-85
2022/07/21 08:06:51;;;;;;;5.00;2.30;;;;;;;;;;5071739;28;20398;-84
2022/07/21 08:09:18;;;;;;;4.28;2.30;;;;;;;;;;5076399;28;20040;-85
2022/07/21 08:11:46;;;;;;;3.15;2.15;;;;;;;;;;5082927;28;20141;-85
2022/07/21 08:14:15;;;;;;;2.80;1.98;;;;;;;;;;5081213;28;20024;-84
2022/07/21 08:16:41;;;;;;;5.72;2.50;;;;;;;;;;5062535;28;20024;-83
2022/07/21 08:19:06;;;;;;;4.47;2.30;;;;;;;;;;5081419;28;20361;-83
2022/07/21 08:21:33;;;;;;;4.25;2.17;;;;;;;;;;5081540;28;20121;-83
2022/07/21 08:23:59;;;;;;;3.42;2.65;;;;;;;;;;5080473;28;20028;-85
2022/07/21 08:26:25;;;;;;;3.25;2.03;;;;;;;;;;5076598;28;20024;-81
2022/07/21 08:28:52;;;;;;;5.00;2.53;;;;;;;;;;5077931;28;20480;-85
2022/07/21 08:31:17;;;;;;;5.15;2.67;;;;;;;;;;5076231;28;20050;-88
2022/07/21 08:33:43;;;;;;;3.63;2.47;;;;;;;;;;5086905;28;20032;-85
2022/07/21 08:36:08;;;;;;;4.78;2.40;;;;;;;;;;5069705;28;20503;-84
2022/07/21 08:38:34;;;;;;;4.38;2.17;;;;;;;;;;5062042;28;20053;-87
2022/07/21 08:40:59;;;;;;;2.72;1.83;;;;;;;;;;5081136;28;20031;-84
2022/07/21 08:43:25;;;;;;;3.50;2.75;;;;;;;;;;5084375;28;20020;-85
2022/07/21 08:45:51;;;;;;;5.55;4.40;;;;;;;;;;5077673;28;20038;-83
2022/07/21 08:48:23;;;;;;;2.55;1.98;;;;;;;;;;5076212;28;20060;-85
2022/07/21 08:50:48;;;;;;;3.53;1.83;;;;;;;;;;5080210;28;20531;-85
2022/07/21 08:53:14;;;;;;;4.93;2.33;;;;;;;;;;5079023;28;20108;-84
2022/07/21 08:55:39;;;;;;;8.05;2.67;;;;;;;;;;5083467;28;20024;-83
2022/07/21 08:58:35;;;;;;;3.13;2.33;;;;;;;;;;5077586;28;20753;-85
2022/07/21 09:01:01;;;;;;;3.95;2.13;;;;;;;;;;5049266;28;20086;-83
2022/07/21 09:03:27;;;;;;;2.15;1.70;;;;;;;;;;5077037;28;20024;-84
2022/07/21 09:06:01;;;;;;;3.47;2.35;;;;;;;;;;5062048;28;20032;-82
2022/07/21 09:08:43;;;;;;;4.78;2.13;;;;;;;;;;5074143;28;20028;-83
2022/07/21 09:11:26;;;;;;;2.45;2.17;;;;;;;;;;5074165;28;20082;-82
2022/07/21 09:14:13;;;;;;;3.72;2.53;;;;;;;;;;5063043;28;20024;-83
2022/07/21 09:16:44;;;;;;;6.97;2.13;;;;;;;;;;5060973;28;20073;-84
2022/07/21 09:19:19;;;;;;;4.65;2.30;;;;;;;;;;5070765;28;20105;-83
2022/07/21 09:21:46;;;;;;;4.72;2.15;;;;;;;;;;5081557;28;20032;-87
2022/07/21 09:24:18;;;;;;;6.65;2.40;;;;;;;;;;5074604;28;20025;-87
2022/07/21 09:27:02;;;;;;;5.40;2.28;;;;;;;;;;5091865;28;20032;-84
2022/07/21 09:29:40;;;;;;;2.80;2.30;;;;;;;;;;5074995;28;20043;-85
2022/07/21 09:32:18;;;;;;;4.85;2.90;;;;;;;;;;5078730;28;20020;-85
2022/07/21 09:34:45;;;;;;;3.55;2.85;;;;;;;;;;5082641;28;20043;-83
2022/07/21 09:37:11;;;;;;;2.80;2.08;;;;;;;;;;5055895;28;20029;-86
2022/07/21 09:39:48;;;;;;;6.95;2.20;;;;;;;;;;5076301;28;20169;-83
2022/07/21 09:42:25;;;;;;;4.25;2.20;;;;;;;;;;5082134;28;20054;-84
2022/07/21 09:44:55;;;;;;;4.00;2.45;;;;;;;;;;5084049;28;20039;-83
2022/07/21 09:47:22;;;;;;;4.35;2.35;;;;;;;;;;5075898;28;20021;-85
2022/07/21 09:49:48;;;;;;;2.60;2.25;;;;;;;;;;5085624;28;20159;-82
2022/07/21 09:52:29;;;;;;;3.88;2.30;;;;;;;;;;5084545;28;20549;-82
2022/07/21 09:55:14;;;;;;;2.67;2.30;;;;;;;;;;5077856;28;20035;-82
2022/07/21 09:57:41;;;;;;;8.23;3.10;;;;;;;;;;5077768;28;20073;-83
2022/07/21 10:00:12;;;;;;;3.45;2.40;;;;;;;;;;5080461;28;20031;-84
2022/07/21 10:02:38;;;;;;;2.80;2.20;;;;;;;;;;5075302;28;20028;-82
2022/07/21 10:05:06;;;;;;;3.60;2.70;;;;;;;;;;5075281;28;20038;-87
2022/07/21 10:07:35;;;;;;;3.33;2.25;;;;;;;;;;5075175;28;20023;-83
2022/07/21 10:10:00;;;;;;;3.13;2.55;;;;;;;;;;5086420;28;20024;-85
2022/07/21 10:12:36;;;;;;;2.85;2.20;;;;;;;;;;5090304;28;20028;-83
2022/07/21 10:15:02;;;;;;;2.40;2.20;;;;;;;;;;5071519;28;20023;-82
2022/07/21 10:17:28;;;;;;;2.75;2.05;;;;;;;;;;5079126;28;20024;-83
2022/07/21 10:20:06;;;;;;;3.20;2.20;;;;;;;;;;5057748;28;20068;-81
2022/07/21 10:23:11;;;;;;;2.20;2.00;;;;;;;;;;5079291;28;20426;-81
2022/07/21 10:25:39;;;;;;;2.55;2.08;;;;;;;;;;5076132;28;20495;-84
2022/07/21 10:28:23;;;;;;;3.83;2.17;;;;;;;;;;5082046;28;20079;-83
2022/07/21 10:30:51;;;;;;;5.68;2.70;;;;;;;;;;5075067;28;20024;-85
2022/07/21 10:33:19;;;;;;;4.55;2.20;;;;;;;;;;5055182;28;20087;-85
2022/07/21 10:35:47;;;;;;;3.55;2.17;;;;;;;;;;5076917;28;20039;-86
2022/07/21 10:38:33;;;;;;;3.90;2.03;;;;;;;;;;5078309;28;20135;-86
2022/07/21 10:41:01;;;;;;;3.38;2.50;;;;;;;;;;5080504;28;20073;-84
2022/07/21 10:43:26;;;;;;;3.35;2.03;;;;;;;;;;5063996;28;20169;-84
2022/07/21 10:45:56;;;;;;;6.20;3.80;;;;;;;;;;5061925;28;20166;-83
2022/07/21 10:48:37;;;;;;;2.15;1.67;;;;;;;;;;5079170;28;20024;-84
2022/07/21 10:51:14;;;;;;;3.05;1.90;;;;;;;;;;5081127;28;20038;-86
2022/07/21 10:53:40;;;;;;;2.80;2.08;;;;;;;;;;5076447;28;20499;-81
2022/07/21 10:56:07;;;;;;;5.70;1.70;;;;;;;;;;5076828;28;20025;-84
2022/07/21 10:58:40;;;;;;;3.35;2.05;;;;;;;;;;5085152;28;20526;-84
2022/07/21 11:01:14;;;;;;;3.22;1.70;;;;;;;;;;5074106;28;20028;-84
2022/07/21 11:03:42;;;;;;;2.53;1.90;;;;;;;;;;5076190;28;20360;-85
2022/07/21 11:06:24;;;;;;;2.70;2.13;;;;;;;;;;5083437;28;20037;-81
2022/07/21 11:09:14;;;;;;;2.45;1.95;;;;;;;;;;5084509;28;20024;-85
2022/07/21 11:11:57;;;;;;;2.30;2.03;;;;;;;;;;5067514;28;20032;-82
2022/07/21 11:14:35;;;;;;;2.45;1.77;;;;;;;;;;5079173;28;20073;-85
2022/07/21 11:17:02;;;;;;;6.38;2.78;;;;;;;;;;5060181;28;20028;-84
2022/07/21 11:19:45;;;;;;;4.68;2.10;;;;;;;;;;5061000;28;20047;-86
2022/07/21 11:22:15;;;;;;;3.08;1.85;;;;;;;;;;5056361;28;20028;-82
2022/07/21 11:24:48;;;;;;;3.55;1.90;;;;;;;;;;5084585;28;20654;-83
2022/07/21 11:27:22;;;;;;;3.05;2.15;;;;;;;;;;5063553;28;20123;-86
2022/07/21 11:29:50;;;;;;;3.03;1.77;;;;;;;;;;5059363;28;20025;-88
2022/07/21 11:32:17;;;;;;;4.10;1.98;;;;;;;;;;5075604;28;20040;-84
2022/07/21 11:34:48;;;;;;;2.58;2.05;;;;;;;;;;5084650;28;20102;-84
2022/07/21 11:37:26;;;;;;;2.30;1.70;;;;;;;;;;5079810;28;20093;-86
2022/07/21 11:39:52;;;;;;;3.15;2.13;;;;;;;;;;5082589;28;20020;-83
2022/07/21 11:42:17;;;;;;;4.38;2.72;;;;;;;;;;5082338;28;20028;-83
2022/07/21 11:44:44;;;;;;;4.53;3.10;;;;;;;;;;5074723;28;20024;-85
2022/07/21 11:47:12;;;;;;;3.30;2.00;;;;;;;;;;5076077;28;20380;-85
2022/07/21 11:49:38;;;;;;;3.25;2.00;;;;;;;;;;5078694;28;20091;-83
2022/07/21 11:52:06;;;;;;;3.22;2.10;;;;;;;;;;5073681;28;20517;-84
2022/07/21 11:54:44;;;;;;;3.08;2.22;;;;;;;;;;5077806;28;20023;-83
2022/07/21 11:57:10;;;;;;;3.17;1.80;;;;;;;;;;5076813;28;20361;-83
2022/07/21 11:59:43;;;;;;;2.67;2.03;;;;;;;;;;5083637;28;20033;-83
2022/07/21 12:02:14;;;;;;;3.08;1.90;;;;;;;;;;5079396;28;20036;-84
2022/07/21 12:04:45;;;;;;;2.88;1.90;;;;;;;;;;5065925;28;20044;-84
2022/07/21 12:07:24;;;;;;;2.67;2.08;;;;;;;;;;5080209;28;20099;-84
2022/07/21 12:09:53;;;;;;;2.20;1.80;;;;;;;;;;5067979;28;20447;-82
2022/07/21 12:12:43;;;;;;;3.00;1.85;;;;;;;;;;5071250;28;20028;-84
2022/07/21 12:15:27;;;;;;;4.22;2.22;;;;;;;;;;5078209;28;20040;-85
2022/07/21 12:17:56;;;;;;;3.17;1.80;;;;;;;;;;5079085;28;20024;-83
2022/07/21 12:20:29;;;;;;;5.25;2.53;;;;;;;;;;5081936;28;20424;-84
2022/07/21 12:22:57;;;;;;;4.78;2.15;;;;;;;;;;5064855;28;20064;-81
2022/07/21 12:25:38;;;;;;;7.67;2.50;;;;;;;;;;5084135;28;20499;-83
2022/07/21 12:28:05;;;;;;;3.42;1.98;;;;;;;;;;5084450;28;20025;-81
2022/07/21 12:30:43;;;;;;;3.83;2.00;;;;;;;;;;5059387;28;20139;-83
2022/07/21 12:33:14;;;;;;;3.22;1.90;;;;;;;;;;5083302;28;20021;-85
2022/07/21 12:35:42;;;;;;;4.03;2.40;;;;;;;;;;5076443;28;20035;-84
2022/07/21 12:38:16;;;;;;;4.82;2.42;;;;;;;;;;5086006;28;20115;-85
2022/07/21 12:40:44;;;;;;;4.38;2.83;;;;;;;;;;5077354;28;20506;-85
2022/07/21 12:43:17;;;;;;;4.07;2.10;;;;;;;;;;5081819;28;20028;-81
2022/07/21 12:45:52;;;;;;;3.13;2.10;;;;;;;;;;5084225;28;20448;-82
2022/07/21 12:48:21;;;;;;;3.08;2.30;;;;;;;;;;5083957;28;20024;-84
2022/07/21 12:51:05;;;;;;;4.05;2.35;;;;;;;;;;5087664;28;20055;-84
2022/07/21 12:53:36;;;;;;;3.65;2.22;;;;;;;;;;5093126;28;20037;-82
2022/07/21 12:56:01;;;;;;;3.13;2.35;;;;;;;;;;5075493;28;20201;-87
2022/07/21 12:58:27;;;;;;;3.28;2.50;;;;;;;;;;5089877;28;20020;-84
2022/07/21 13:00:53;;;;;;;2.60;2.22;;;;;;;;;;5081551;28;20029;-85
2022/07/21 13:03:18;;;;;;;2.58;1.90;;;;;;;;;;5077144;28;20016;-84
2022/07/21 13:05:44;;;;;;;3.78;2.05;;;;;;;;;;5094874;28;20036;-81
2022/07/21 13:08:09;;;;;;;4.88;2.25;;;;;;;;;;5063040;28;20081;-82
2022/07/21 13:10:35;;;;;;;8.20;2.58;;;;;;;;;;5082598;28;20112;-84
2022/07/21 13:13:00;;;;;;;4.78;2.30;;;;;;;;;;5082618;28;20032;-83
2022/07/21 13:15:26;;;;;;;4.38;2.38;;;;;;;;;;5084373;28;20073;-83
2022/07/21 13:17:52;;;;;;;3.35;2.40;;;;;;;;;;5085663;28;20023;-83
2022/07/21 13:20:17;;;;;;;7.13;2.33;;;;;;;;;;5062508;28;20056;-84
2022/07/21 13:22:43;;;;;;;3.58;2.00;;;;;;;;;;5083991;28;20033;-83
2022/07/21 13:25:10;;;;;;;2.60;2.22;;;;;;;;;;5092875;28;20528;-83
2022/07/21 13:27:36;;;;;;;4.10;2.10;;;;;;;;;;5082543;28;20114;-83
2022/07/21 13:30:04;;;;;;;4.55;2.42;;;;;;;;;;5082389;28;20032;-81
2022/07/21 13:32:32;;;;;;;4.95;2.58;;;;;;;;;;5087463;28;20059;-83
2022/07/21 13:34:58;;;;;;;5.85;1.98;;;;;;;;;;5062643;28;20052;-85
2022/07/21 13:37:23;;;;;;;4.30;2.30;;;;;;;;;;5086116;28;20059;-84
2022/07/21 13:39:49;;;;;;;2.50;2.10;;;;;;;;;;5087770;28;20028;-87
2022/07/21 13:42:14;;;;;;;3.25;1.98;;;;;;;;;;5083391;28;20024;-82
2022/07/21 13:44:40;;;;;;;2.92;2.05;;;;;;;;;;5086281;28;20039;-82
2022/07/21 13:47:05;;;;;;;4.70;2.15;;;;;;;;;;5085112;28;20031;-81
2022/07/21 13:49:31;;;;;;;6.03;2.20;;;;;;;;;;5082344;28;20039;-86
2022/07/21 13:51:56;;;;;;;12.35;3.30;;;;;;;;;;5083220;28;20418;-83
2022/07/21 13:54:21;;;;;;;5.32;1.90;;;;;;;;;;5075185;28;20028;-84
2022/07/21 13:56:47;;;;;;;4.40;2.10;;;;;;;;;;5085743;28;20051;-83
2022/07/21 13:59:13;;;;;;;4.25;2.40;;;;;;;;;;5078780;28;20412;-85
2022/07/21 14:01:39;;;;;;;3.13;2.00;;;;;;;;;;5076932;28;20060;-84
2022/07/21 14:04:04;;;;;;;3.20;2.30;;;;;;;;;;5063253;28;20366;-84
2022/07/21 14:06:30;;;;;;;5.15;2.30;;;;;;;;;;5063378;28;20057;-85
2022/07/21 14:08:58;;;;;;;4.70;2.63;;;;;;;;;;5079765;28;20034;-82
2022/07/21 14:11:27;;;;;;;3.55;1.90;;;;;;;;;;5087867;28;20475;-82
2022/07/21 14:13:53;;;;;;;8.35;2.30;;;;;;;;;;5076678;28;20090;-82
2022/07/21 14:16:18;;;;;;;4.18;2.33;;;;;;;;;;5079336;28;20035;-83
2022/07/21 14:18:44;;;;;;;3.03;2.05;;;;;;;;;;5085823;28;20031;-83
2022/07/21 14:21:09;;;;;;;3.83;2.25;;;;;;;;;;5084362;28;20507;-85
2022/07/21 14:23:35;;;;;;;2.40;2.00;;;;;;;;;;5049342;28;20041;-83
2022/07/21 14:26:01;;;;;;;2.22;1.95;;;;;;;;;;5047461;28;20036;-84
2022/07/21 14:28:27;;;;;;;2.90;1.90;;;;;;;;;;5051169;28;20036;-82
2022/07/21 14:30:52;;;;;;;2.33;1.80;;;;;;;;;;5050114;28;20033;-83
2022/07/21 14:33:17;;;;;;;4.55;2.05;;;;;;;;;;5051153;28;20423;-82
2022/07/21 14:35:43;;;;;;;3.90;2.00;;;;;;;;;;5050678;28;20100;-81
2022/07/21 14:38:09;;;;;;;4.50;1.90;;;;;;;;;;5049835;28;20109;-84
2022/07/21 14:40:36;;;;;;;6.68;2.30;;;;;;;;;;5050878;28;20149;-83
2022/07/21 14:43:01;;;;;;;3.38;1.95;;;;;;;;;;5051216;28;20045;-84
2022/07/21 14:45:27;;;;;;;5.90;2.28;;;;;;;;;;5047395;28;20060;-83
2022/07/21 14:47:54;;;;;;;2.42;1.88;;;;;;;;;;5051196;28;20032;-84
2022/07/21 14:50:21;;;;;;;3.45;1.95;;;;;;;;;;5051022;28;20052;-83